sensor_id;sensor_type;location;lat;lon;timestamp;P1;durP1;ratioP1;P2;durP2;ratioP2
70122;SDS011;57489;37.404;24.920;2023-04-01T00:02:05;5.63;;;2.03;;
70122;SDS011;57489;37.404;24.920;2023-04-01T00:07:05;3.27;;;1.37;;
70122;SDS011;57489;37.404;24.920;2023-04-01T00:12:06;3.20;;;1.23;;
70122;SDS011;57489;37.404;24.920;2023-04-01T00:17:06;6.13;;;2.20;;
70122;SDS011;57489;37.404;24.920;2023-04-01T00:22:07;3.13;;;1.90;;
70122;SDS011;57489;37.404;24.920;2023-04-01T00:27:07;5.25;;;1.67;;
70122;SDS011;57489;37.404;24.920;2023-04-01T00:32:08;7.67;;;1.50;;
70122;SDS011;57489;37.404;24.920;2023-04-01T00:37:08;4.93;;;1.40;;
70122;SDS011;57489;37.404;24.920;2023-04-01T00:42:09;5.07;;;1.90;;
70122;SDS011;57489;37.404;24.920;2023-04-01T00:47:10;4.28;;;2.20;;
70122;SDS011;57489;37.404;24.920;2023-04-01T00:52:12;4.43;;;2.13;;
70122;SDS011;57489;37.404;24.920;2023-04-01T00:57:20;4.60;;;1.53;;
70122;SDS011;57489;37.404;24.920;2023-04-01T01:02:25;3.90;;;1.80;;
70122;SDS011;57489;37.404;24.920;2023-04-01T01:13:09;5.57;;;1.80;;
70122;SDS011;57489;37.404;24.920;2023-04-01T01:34:35;6.97;;;2.33;;
70122;SDS011;57489;37.404;24.920;2023-04-01T01:39:53;3.33;;;1.17;;
70122;SDS011;57489;37.404;24.920;2023-04-01T01:44:56;6.30;;;1.85;;
70122;SDS011;57489;37.404;24.920;2023-04-01T01:49:58;4.70;;;1.92;;
70122;SDS011;57489;37.404;24.920;2023-04-01T01:54:59;5.43;;;1.90;;
70122;SDS011;57489;37.404;24.920;2023-04-01T02:00:09;4.87;;;1.90;;
70122;SDS011;57489;37.404;24.920;2023-04-01T02:05:13;6.15;;;1.83;;
70122;SDS011;57489;37.404;24.920;2023-04-01T02:10:17;5.27;;;1.60;;
70122;SDS011;57489;37.404;24.920;2023-04-01T02:15:19;4.32;;;1.45;;
70122;SDS011;57489;37.404;24.920;2023-04-01T02:20:22;3.77;;;1.57;;
70122;SDS011;57489;37.404;24.920;2023-04-01T02:25:25;6.67;;;1.57;;
70122;SDS011;57489;37.404;24.920;2023-04-01T02:30:29;4.10;;;1.52;;
70122;SDS011;57489;37.404;24.920;2023-04-01T02:35:32;4.30;;;1.73;;
70122;SDS011;57489;37.404;24.920;2023-04-01T02:40:42;4.67;;;1.43;;
70122;SDS011;57489;37.404;24.920;2023-04-01T02:45:47;5.68;;;2.20;;
70122;SDS011;57489;37.404;24.920;2023-04-01T02:50:48;4.37;;;2.03;;
70122;SDS011;57489;37.404;24.920;2023-04-01T02:55:48;3.85;;;2.00;;
70122;SDS011;57489;37.404;24.920;2023-04-01T03:00:49;3.70;;;1.57;;
70122;SDS011;57489;37.404;24.920;2023-04-01T03:05:49;5.03;;;1.77;;
70122;SDS011;57489;37.404;24.920;2023-04-01T03:10:50;4.57;;;1.53;;
70122;SDS011;57489;37.404;24.920;2023-04-01T03:15:50;3.40;;;1.33;;
70122;SDS011;57489;37.404;24.920;2023-04-01T03:20:51;5.07;;;1.80;;
70122;SDS011;57489;37.404;24.920;2023-04-01T03:25:52;3.57;;;1.37;;
70122;SDS011;57489;37.404;24.920;2023-04-01T03:30:52;5.17;;;1.60;;
70122;SDS011;57489;37.404;24.920;2023-04-01T03:35:52;4.03;;;1.70;;
70122;SDS011;57489;37.404;24.920;2023-04-01T03:40:53;9.60;;;2.03;;
70122;SDS011;57489;37.404;24.920;2023-04-01T03:45:54;2.93;;;1.40;;
70122;SDS011;57489;37.404;24.920;2023-04-01T03:50:55;6.88;;;1.63;;
70122;SDS011;57489;37.404;24.920;2023-04-01T03:55:55;5.57;;;1.63;;
70122;SDS011;57489;37.404;24.920;2023-04-01T04:00:56;3.53;;;1.33;;
70122;SDS011;57489;37.404;24.920;2023-04-01T04:05:56;6.20;;;1.93;;
70122;SDS011;57489;37.404;24.920;2023-04-01T04:10:56;3.53;;;1.53;;
70122;SDS011;57489;37.404;24.920;2023-04-01T04:15:57;4.67;;;1.87;;
70122;SDS011;57489;37.404;24.920;2023-04-01T04:20:58;4.88;;;1.50;;
70122;SDS011;57489;37.404;24.920;2023-04-01T04:26:10;4.87;;;1.73;;
70122;SDS011;57489;37.404;24.920;2023-04-01T04:31:11;7.32;;;1.90;;
70122;SDS011;57489;37.404;24.920;2023-04-01T04:36:18;6.23;;;2.03;;
70122;SDS011;57489;37.404;24.920;2023-04-01T04:41:19;4.35;;;1.90;;
70122;SDS011;57489;37.404;24.920;2023-04-01T04:46:20;3.88;;;1.60;;
70122;SDS011;57489;37.404;24.920;2023-04-01T04:51:21;3.90;;;1.73;;
70122;SDS011;57489;37.404;24.920;2023-04-01T04:56:22;5.20;;;1.92;;
70122;SDS011;57489;37.404;24.920;2023-04-01T05:01:23;6.43;;;1.60;;
70122;SDS011;57489;37.404;24.920;2023-04-01T05:06:23;5.07;;;2.17;;
70122;SDS011;57489;37.404;24.920;2023-04-01T05:11:24;5.77;;;1.57;;
70122;SDS011;57489;37.404;24.920;2023-04-01T05:16:24;7.37;;;1.67;;
70122;SDS011;57489;37.404;24.920;2023-04-01T05:21:25;4.23;;;1.70;;
70122;SDS011;57489;37.404;24.920;2023-04-01T05:26:25;3.60;;;1.40;;
70122;SDS011;57489;37.404;24.920;2023-04-01T05:31:26;6.43;;;1.53;;
70122;SDS011;57489;37.404;24.920;2023-04-01T05:36:26;5.73;;;1.87;;
70122;SDS011;57489;37.404;24.920;2023-04-01T05:41:26;4.90;;;1.67;;
70122;SDS011;57489;37.404;24.920;2023-04-01T05:46:27;4.83;;;1.67;;
70122;SDS011;57489;37.404;24.920;2023-04-01T05:51:27;5.50;;;1.37;;
70122;SDS011;57489;37.404;24.920;2023-04-01T05:56:28;5.10;;;1.70;;
70122;SDS011;57489;37.404;24.920;2023-04-01T06:01:28;5.57;;;2.13;;
70122;SDS011;57489;37.404;24.920;2023-04-01T06:06:29;4.63;;;1.47;;
70122;SDS011;57489;37.404;24.920;2023-04-01T06:11:34;5.13;;;1.00;;
70122;SDS011;57489;37.404;24.920;2023-04-01T06:17:28;8.07;;;2.10;;
70122;SDS011;57489;37.404;24.920;2023-04-01T06:27:48;6.00;;;1.83;;
70122;SDS011;57489;37.404;24.920;2023-04-01T06:32:56;6.75;;;2.72;;
70122;SDS011;57489;37.404;24.920;2023-04-01T06:43:44;5.37;;;1.67;;
70122;SDS011;57489;37.404;24.920;2023-04-01T06:48:59;8.00;;;2.60;;
70122;SDS011;57489;37.404;24.920;2023-04-01T06:59:25;6.67;;;1.33;;
70122;SDS011;57489;37.404;24.920;2023-04-01T07:04:34;7.47;;;1.70;;
70122;SDS011;57489;37.404;24.920;2023-04-01T07:09:40;13.15;;;2.05;;
70122;SDS011;57489;37.404;24.920;2023-04-01T07:14:44;7.70;;;2.30;;
70122;SDS011;57489;37.404;24.920;2023-04-01T07:19:50;11.47;;;2.37;;
70122;SDS011;57489;37.404;24.920;2023-04-01T07:25:01;11.65;;;2.35;;
70122;SDS011;57489;37.404;24.920;2023-04-01T07:30:18;10.85;;;2.25;;
70122;SDS011;57489;37.404;24.920;2023-04-01T07:35:30;8.97;;;2.27;;
70122;SDS011;57489;37.404;24.920;2023-04-01T07:47:06;10.40;;;2.28;;
70122;SDS011;57489;37.404;24.920;2023-04-01T07:51:57;12.00;;;2.20;;
70122;SDS011;57489;37.404;24.920;2023-04-01T08:28:29;9.23;;;2.38;;
70122;SDS011;57489;37.404;24.920;2023-04-01T08:33:33;9.17;;;1.80;;
70122;SDS011;57489;37.404;24.920;2023-04-01T08:38:49;11.40;;;2.33;;
70122;SDS011;57489;37.404;24.920;2023-04-01T08:43:59;10.02;;;2.75;;
70122;SDS011;57489;37.404;24.920;2023-04-01T08:54:46;9.87;;;2.23;;
70122;SDS011;57489;37.404;24.920;2023-04-01T09:21:10;12.77;;;2.23;;
70122;SDS011;57489;37.404;24.920;2023-04-01T09:42:51;9.00;;;2.10;;
70122;SDS011;57489;37.404;24.920;2023-04-01T09:48:11;8.43;;;2.13;;
70122;SDS011;57489;37.404;24.920;2023-04-01T11:03:36;13.97;;;2.07;;
70122;SDS011;57489;37.404;24.920;2023-04-01T11:08:48;9.80;;;2.33;;
70122;SDS011;57489;37.404;24.920;2023-04-01T11:40:43;7.23;;;2.03;;
70122;SDS011;57489;37.404;24.920;2023-04-01T11:45:53;11.63;;;2.72;;
70122;SDS011;57489;37.404;24.920;2023-04-01T12:17:49;8.30;;;2.28;;
70122;SDS011;57489;37.404;24.920;2023-04-01T12:28:19;11.60;;;2.23;;
70122;SDS011;57489;37.404;24.920;2023-04-01T12:33:47;11.93;;;2.08;;
70122;SDS011;57489;37.404;24.920;2023-04-01T12:49:27;11.87;;;3.10;;
70122;SDS011;57489;37.404;24.920;2023-04-01T13:15:41;13.25;;;2.30;;
70122;SDS011;57489;37.404;24.920;2023-04-01T13:26:07;10.90;;;2.47;;
70122;SDS011;57489;37.404;24.920;2023-04-01T13:31:34;10.77;;;1.90;;
70122;SDS011;57489;37.404;24.920;2023-04-01T13:42:20;15.57;;;2.70;;
70122;SDS011;57489;37.404;24.920;2023-04-01T13:58:38;13.55;;;2.17;;
70122;SDS011;57489;37.404;24.920;2023-04-01T14:03:54;15.97;;;2.83;;
70122;SDS011;57489;37.404;24.920;2023-04-01T14:30:38;13.85;;;2.90;;
70122;SDS011;57489;37.404;24.920;2023-04-01T14:41:06;11.73;;;2.72;;
70122;SDS011;57489;37.404;24.920;2023-04-01T14:51:52;14.10;;;2.30;;
70122;SDS011;57489;37.404;24.920;2023-04-01T14:57:10;15.50;;;2.97;;
70122;SDS011;57489;37.404;24.920;2023-04-01T15:23:02;13.98;;;2.60;;
70122;SDS011;57489;37.404;24.920;2023-04-01T15:33:43;15.43;;;3.25;;
70122;SDS011;57489;37.404;24.920;2023-04-01T15:39:18;18.55;;;3.25;;
70122;SDS011;57489;37.404;24.920;2023-04-01T15:49:44;17.40;;;3.25;;
70122;SDS011;57489;37.404;24.920;2023-04-01T16:11:18;13.70;;;2.95;;
70122;SDS011;57489;37.404;24.920;2023-04-01T16:16:47;12.30;;;2.67;;
70122;SDS011;57489;37.404;24.920;2023-04-01T16:21:54;15.98;;;3.75;;
70122;SDS011;57489;37.404;24.920;2023-04-01T16:27:12;18.05;;;4.03;;
70122;SDS011;57489;37.404;24.920;2023-04-01T16:32:37;11.67;;;2.87;;
70122;SDS011;57489;37.404;24.920;2023-04-01T16:37:54;22.05;;;4.07;;
70122;SDS011;57489;37.404;24.920;2023-04-01T16:43:25;15.55;;;3.50;;
70122;SDS011;57489;37.404;24.920;2023-04-01T16:54:06;15.70;;;3.80;;
70122;SDS011;57489;37.404;24.920;2023-04-01T16:59:22;14.45;;;3.75;;
70122;SDS011;57489;37.404;24.920;2023-04-01T17:04:31;15.13;;;3.73;;
70122;SDS011;57489;37.404;24.920;2023-04-01T17:15:21;17.20;;;4.10;;
70122;SDS011;57489;37.404;24.920;2023-04-01T17:20:43;16.37;;;4.33;;
70122;SDS011;57489;37.404;24.920;2023-04-01T17:46:50;23.10;;;5.38;;
70122;SDS011;57489;37.404;24.920;2023-04-01T17:52:19;22.15;;;4.65;;
70122;SDS011;57489;37.404;24.920;2023-04-01T18:08:08;17.17;;;5.47;;
70122;SDS011;57489;37.404;24.920;2023-04-01T18:13:22;17.90;;;5.10;;
70122;SDS011;57489;37.404;24.920;2023-04-01T18:24:13;15.63;;;4.25;;
70122;SDS011;57489;37.404;24.920;2023-04-01T18:39:42;15.20;;;3.75;;
70122;SDS011;57489;37.404;24.920;2023-04-01T18:45:20;17.63;;;3.73;;
70122;SDS011;57489;37.404;24.920;2023-04-01T18:50:28;12.67;;;3.27;;
70122;SDS011;57489;37.404;24.920;2023-04-01T18:55:54;17.50;;;4.38;;
70122;SDS011;57489;37.404;24.920;2023-04-01T19:06:32;12.83;;;3.53;;
70122;SDS011;57489;37.404;24.920;2023-04-01T19:11:40;15.23;;;3.67;;
70122;SDS011;57489;37.404;24.920;2023-04-01T19:27:53;17.58;;;3.60;;
70122;SDS011;57489;37.404;24.920;2023-04-01T19:38:31;18.53;;;2.77;;
70122;SDS011;57489;37.404;24.920;2023-04-01T19:59:59;13.45;;;2.80;;
70122;SDS011;57489;37.404;24.920;2023-04-01T20:05:21;14.70;;;3.63;;
70122;SDS011;57489;37.404;24.920;2023-04-01T20:15:59;16.77;;;3.67;;
70122;SDS011;57489;37.404;24.920;2023-04-01T20:21:03;9.57;;;3.77;;
70122;SDS011;57489;37.404;24.920;2023-04-01T20:26:22;10.57;;;3.37;;
70122;SDS011;57489;37.404;24.920;2023-04-01T20:31:36;14.80;;;3.10;;
70122;SDS011;57489;37.404;24.920;2023-04-01T20:36:48;15.82;;;2.88;;
70122;SDS011;57489;37.404;24.920;2023-04-01T20:52:32;9.37;;;2.77;;
70122;SDS011;57489;37.404;24.920;2023-04-01T21:08:43;11.65;;;3.00;;
70122;SDS011;57489;37.404;24.920;2023-04-01T21:19:47;11.50;;;3.17;;
70122;SDS011;57489;37.404;24.920;2023-04-01T21:45:41;12.63;;;3.83;;
70122;SDS011;57489;37.404;24.920;2023-04-01T21:56:33;7.53;;;2.40;;
70122;SDS011;57489;37.404;24.920;2023-04-01T22:07:58;8.37;;;2.60;;
70122;SDS011;57489;37.404;24.920;2023-04-01T22:18:12;9.82;;;2.47;;
70122;SDS011;57489;37.404;24.920;2023-04-01T22:23:21;7.73;;;2.50;;
70122;SDS011;57489;37.404;24.920;2023-04-01T22:28:33;9.55;;;2.70;;
70122;SDS011;57489;37.404;24.920;2023-04-01T22:34:08;11.80;;;2.85;;
70122;SDS011;57489;37.404;24.920;2023-04-01T22:39:21;12.87;;;2.50;;
70122;SDS011;57489;37.404;24.920;2023-04-01T22:49:56;10.15;;;2.40;;
70122;SDS011;57489;37.404;24.920;2023-04-01T22:55:03;8.47;;;2.50;;
70122;SDS011;57489;37.404;24.920;2023-04-01T23:05:15;7.25;;;2.38;;
70122;SDS011;57489;37.404;24.920;2023-04-01T23:10:32;15.10;;;2.73;;
70122;SDS011;57489;37.404;24.920;2023-04-01T23:15:40;8.32;;;2.53;;
70122;SDS011;57489;37.404;24.920;2023-04-01T23:31:35;9.27;;;2.78;;
70122;SDS011;57489;37.404;24.920;2023-04-01T23:36:39;7.57;;;2.53;;
70122;SDS011;57489;37.404;24.920;2023-04-01T23:41:42;11.85;;;2.63;;
70122;SDS011;57489;37.404;24.920;2023-04-01T23:46:44;6.40;;;2.30;;
70122;SDS011;57489;37.404;24.920;2023-04-01T23:51:59;9.48;;;2.63;;
70122;SDS011;57489;37.404;24.920;2023-04-01T23:57:13;7.07;;;3.10;;
